Time;durP1;ratioP1;P1;durP2;ratioP2;P2;SDS_P1;SDS_P2;PMS_P1;PMS_P2;Temp;Humidity;BMP_temperature;BMP_pressure;BME280_temperature;BME280_humidity;BME280_pressure;Samples;Min_cycle;Max_cycle;Signal;HPM_P1;HPM_P2
2023/01/11 00:01:53;;;;;;;2.03;0.80;;;8.60;99.90;;;;;;5058384;28;20174;-79
2023/01/11 00:04:19;;;;;;;2.10;1.30;;;8.60;99.90;;;;;;5057825;28;20040;-79
2023/01/11 00:06:45;;;;;;;2.25;1.20;;;8.70;99.90;;;;;;5069556;28;20067;-79
2023/01/11 00:09:11;;;;;;;3.10;1.05;;;8.70;99.90;;;;;;5068870;28;20620;-79
2023/01/11 00:11:37;;;;;;;1.90;0.80;;;8.70;99.90;;;;;;5070595;28;20533;-79
2023/01/11 00:14:03;;;;;;;2.13;1.08;;;8.70;99.90;;;;;;5065321;28;20047;-79
2023/01/11 00:16:28;;;;;;;1.58;0.88;;;8.70;99.90;;;;;;5053408;28;20490;-79
2023/01/11 00:18:55;;;;;;;3.05;1.50;;;8.70;99.90;;;;;;5068400;28;22230;-79
2023/01/11 00:21:21;;;;;;;1.38;0.75;;;8.80;99.90;;;;;;5055739;28;20040;-78
2023/01/11 00:23:48;;;;;;;2.42;1.25;;;8.70;99.90;;;;;;5054435;28;20036;-79
2023/01/11 00:26:14;;;;;;;2.47;1.13;;;8.70;99.90;;;;;;5069278;28;20473;-78
2023/01/11 00:28:40;;;;;;;2.05;1.00;;;8.80;99.90;;;;;;5068181;28;20510;-79
2023/01/11 00:31:06;;;;;;;2.92;1.17;;;8.80;99.90;;;;;;5067005;28;20186;-78
2023/01/11 00:33:32;;;;;;;1.58;0.82;;;8.80;99.90;;;;;;5070806;28;20040;-79
2023/01/11 00:35:58;;;;;;;1.70;0.90;;;8.80;99.90;;;;;;5080200;28;20131;-78
2023/01/11 00:49:22;;;;;;;2.50;1.25;;;8.90;99.90;;;;;;5069323;28;20048;-78
2023/01/11 00:51:47;;;;;;;1.48;0.90;;;8.90;99.90;;;;;;5072266;28;20048;-78
2023/01/11 00:54:14;;;;;;;2.20;1.10;;;8.90;99.90;;;;;;5069063;28;20040;-79
2023/01/11 00:56:40;;;;;;;3.05;1.60;;;8.90;99.90;;;;;;5065908;28;20093;-78
2023/01/11 00:59:05;;;;;;;2.45;0.95;;;8.90;99.90;;;;;;5067084;28;20089;-78
2023/01/11 01:01:31;;;;;;;1.80;1.02;;;9.00;99.90;;;;;;5065661;28;20456;-77
2023/01/11 01:03:59;;;;;;;1.98;0.80;;;9.00;99.90;;;;;;5066833;28;20035;-77
2023/01/11 01:06:25;;;;;;;2.08;0.90;;;9.00;99.90;;;;;;5068076;28;20028;-77
2023/01/11 01:08:50;;;;;;;2.33;1.10;;;9.00;99.90;;;;;;5070240;28;20048;-78
2023/01/11 01:11:16;;;;;;;1.50;0.75;;;9.00;99.90;;;;;;5051284;28;20148;-77
2023/01/11 01:16:26;;;;;;;3.40;0.95;;;9.00;99.90;;;;;;5065588;28;20055;-79
2023/01/11 01:18:52;;;;;;;1.85;1.00;;;9.10;99.90;;;;;;5060175;28;20040;-78
2023/01/11 01:21:18;;;;;;;1.88;1.10;;;9.10;99.90;;;;;;5056000;28;20032;-77
2023/01/11 01:23:44;;;;;;;2.28;1.20;;;9.10;99.90;;;;;;5057973;28;20074;-78
2023/01/11 01:26:10;;;;;;;2.83;1.50;;;9.10;99.90;;;;;;5047878;28;20036;-77
2023/01/11 01:28:35;;;;;;;1.80;0.90;;;9.20;99.90;;;;;;5076156;28;20052;-77
2023/01/11 01:31:01;;;;;;;2.00;0.82;;;9.10;99.90;;;;;;5068194;28;20033;-77
2023/01/11 01:33:27;;;;;;;2.97;1.52;;;9.20;99.90;;;;;;5071149;28;20152;-78
2023/01/11 01:35:53;;;;;;;1.98;0.90;;;9.20;99.90;;;;;;5058663;28;20515;-78
2023/01/11 01:38:18;;;;;;;1.73;1.00;;;9.20;99.90;;;;;;5072091;28;20040;-77
2023/01/11 01:40:46;;;;;;;2.08;1.10;;;9.20;99.90;;;;;;5072124;28;20036;-77
2023/01/11 01:43:14;;;;;;;1.88;1.05;;;9.20;99.90;;;;;;5075622;28;20486;-78
2023/01/11 01:45:40;;;;;;;1.65;1.00;;;9.20;99.90;;;;;;5054716;28;20032;-77
2023/01/11 01:48:09;;;;;;;3.50;1.20;;;9.30;99.90;;;;;;5085210;28;20343;-77
2023/01/11 01:50:42;;;;;;;2.38;1.15;;;9.30;99.90;;;;;;5066752;28;20043;-78
2023/01/11 01:53:13;;;;;;;2.10;1.30;;;9.20;99.90;;;;;;5067448;28;20040;-78
2023/01/11 01:55:43;;;;;;;2.05;1.20;;;9.30;99.90;;;;;;5062272;28;20040;-78
2023/01/11 01:58:12;;;;;;;2.63;1.23;;;9.30;99.90;;;;;;5072271;28;20685;-77
2023/01/11 02:00:41;;;;;;;2.63;1.17;;;9.30;99.90;;;;;;5062655;28;20053;-77
2023/01/11 02:03:09;;;;;;;1.95;1.13;;;9.40;99.90;;;;;;5057424;28;20035;-78
2023/01/11 02:05:35;;;;;;;2.38;1.17;;;9.40;99.90;;;;;;5070187;28;20048;-77
2023/01/11 02:08:07;;;;;;;2.72;1.20;;;9.40;99.90;;;;;;5088913;28;20055;-77
2023/01/11 02:10:33;;;;;;;2.63;1.10;;;9.40;99.90;;;;;;5069564;28;20048;-78
2023/01/11 02:13:08;;;;;;;2.35;1.10;;;9.50;99.90;;;;;;5053581;28;20097;-78
2023/01/11 02:15:35;;;;;;;2.13;0.95;;;9.50;99.90;;;;;;5057660;28;20055;-78
2023/01/11 02:18:01;;;;;;;3.67;1.60;;;9.50;99.90;;;;;;5068899;28;20119;-77
2023/01/11 02:20:49;;;;;;;2.28;1.17;;;9.50;99.90;;;;;;5072955;28;20032;-77
2023/01/11 02:23:53;;;;;;;2.10;1.02;;;9.60;99.90;;;;;;5056104;28;20035;-77
2023/01/11 02:26:43;;;;;;;2.72;1.38;;;9.50;99.90;;;;;;5038972;28;20458;-78
2023/01/11 02:29:17;;;;;;;1.88;1.05;;;9.60;99.90;;;;;;5019972;28;20078;-77
2023/01/11 02:31:58;;;;;;;1.88;1.10;;;9.60;99.90;;;;;;5042048;28;20056;-77
2023/01/11 02:34:41;;;;;;;1.92;1.10;;;9.60;99.90;;;;;;5074579;28;20040;-77
2023/01/11 02:37:35;;;;;;;2.92;0.95;;;9.60;99.90;;;;;;5055288;28;20044;-78
2023/01/11 02:40:34;;;;;;;2.10;0.93;;;9.60;99.90;;;;;;5068687;28;20028;-77
2023/01/11 02:46:15;;;;;;;2.17;0.90;;;9.70;99.90;;;;;;5072118;28;20052;-78
2023/01/11 02:48:45;;;;;;;;;;;9.70;99.90;;;;;;5061517;28;20045;-77
2023/01/11 02:51:18;;;;;;;2.03;0.90;;;9.70;99.90;;;;;;5109491;27;20262;-77
2023/01/11 02:54:07;;;;;;;1.90;1.23;;;9.80;99.90;;;;;;5073820;28;20505;-77
2023/01/11 02:56:39;;;;;;;1.48;0.80;;;9.80;99.90;;;;;;5062126;28;20043;-77
2023/01/11 02:59:08;;;;;;;1.38;0.82;;;9.80;99.90;;;;;;5071138;28;20277;-77
2023/01/11 03:01:43;;;;;;;2.40;1.00;;;9.80;99.90;;;;;;5071942;28;20902;-77
2023/01/11 03:04:21;;;;;;;2.03;0.83;;;9.80;99.90;;;;;;5068619;28;20044;-77
2023/01/11 03:06:47;;;;;;;1.05;0.68;;;9.80;99.90;;;;;;5072661;28;20083;-77
2023/01/11 03:09:25;;;;;;;1.30;0.70;;;9.80;99.90;;;;;;5071797;28;20041;-76
2023/01/11 03:12:53;;;;;;;1.95;0.73;;;9.80;99.90;;;;;;5071292;28;20251;-77
2023/01/11 03:15:33;;;;;;;2.92;0.57;;;9.90;99.90;;;;;;5085374;27;20050;-76
2023/01/11 03:18:20;;;;;;;1.90;0.77;;;9.90;99.90;;;;;;5072161;28;20043;-77
2023/01/11 03:20:57;;;;;;;1.83;0.80;;;9.90;99.90;;;;;;5072761;28;20518;-78
2023/01/11 03:23:39;;;;;;;1.75;0.70;;;10.00;99.90;;;;;;5069244;28;20046;-77
2023/01/11 03:26:24;;;;;;;1.38;0.60;;;9.90;99.90;;;;;;5060860;28;20044;-77
2023/01/11 03:29:12;;;;;;;1.05;0.40;;;9.90;99.90;;;;;;5071464;28;20118;-77
2023/01/11 03:31:51;;;;;;;0.57;0.30;;;10.00;99.90;;;;;;5062420;28;20066;-77
2023/01/11 03:34:54;;;;;;;1.15;0.50;;;9.90;99.90;;;;;;5051287;28;20037;-77
2023/01/11 03:37:32;;;;;;;0.75;0.40;;;10.00;99.90;;;;;;5072220;28;20504;-77
2023/01/11 03:40:36;;;;;;;0.90;0.50;;;10.00;99.90;;;;;;5068308;28;20159;-77
2023/01/11 03:43:12;;;;;;;1.10;0.50;;;10.00;99.90;;;;;;5036211;28;20051;-77
2023/01/11 03:45:52;;;;;;;2.35;0.50;;;10.10;99.90;;;;;;5064889;28;20135;-77
2023/01/11 03:48:44;;;;;;;1.95;0.43;;;10.10;99.90;;;;;;5072422;28;20097;-77
2023/01/11 03:51:15;;;;;;;1.05;0.60;;;10.10;99.90;;;;;;5071108;28;20040;-78
2023/01/11 03:53:45;;;;;;;1.40;0.80;;;10.10;99.90;;;;;;5054506;28;20047;-78
2023/01/11 03:56:14;;;;;;;0.98;0.50;;;10.10;99.90;;;;;;5090028;28;20114;-78
2023/01/11 03:58:40;;;;;;;0.77;0.30;;;10.00;99.90;;;;;;5087707;28;20052;-77
2023/01/11 04:01:06;;;;;;;0.40;0.22;;;10.20;99.90;;;;;;5069913;28;20067;-78
2023/01/11 04:03:32;;;;;;;0.60;0.22;;;10.10;99.90;;;;;;5072595;28;21857;-78
2023/01/11 04:06:00;;;;;;;1.00;0.40;;;10.10;99.90;;;;;;5069441;28;20035;-79
2023/01/11 04:08:26;;;;;;;0.43;0.20;;;10.10;99.90;;;;;;5084729;28;20049;-78
2023/01/11 04:10:52;;;;;;;0.20;0.10;;;10.20;99.90;;;;;;5052207;28;20066;-78
2023/01/11 04:13:17;;;;;;;0.55;0.30;;;10.10;99.90;;;;;;5069264;28;20079;-78
2023/01/11 04:15:43;;;;;;;0.60;0.30;;;10.10;99.90;;;;;;5058592;28;21753;-78
2023/01/11 04:18:09;;;;;;;0.50;0.20;;;10.10;99.90;;;;;;5104390;27;20086;-78
2023/01/11 04:20:36;;;;;;;0.10;0.10;;;10.20;99.90;;;;;;5069944;28;20036;-78
2023/01/11 04:23:03;;;;;;;0.45;0.28;;;10.10;99.90;;;;;;5051355;28;20079;-77
2023/01/11 04:25:29;;;;;;;0.40;0.20;;;10.10;99.90;;;;;;5075218;28;20078;-77
2023/01/11 04:27:54;;;;;;;0.57;0.30;;;10.10;99.90;;;;;;5074219;28;20040;-77
2023/01/11 04:30:20;;;;;;;0.73;0.30;;;10.20;99.90;;;;;;5069749;28;20044;-77
2023/01/11 04:32:46;;;;;;;1.15;0.40;;;10.20;99.90;;;;;;5067767;28;20044;-77
2023/01/11 04:35:12;;;;;;;0.52;0.20;;;10.30;99.90;;;;;;5070269;28;20066;-77
2023/01/11 04:37:37;;;;;;;1.00;0.60;;;10.20;99.90;;;;;;5055950;28;20044;-77
2023/01/11 04:40:03;;;;;;;0.95;0.40;;;10.20;99.90;;;;;;5056159;28;21502;-77
2023/01/11 04:42:29;;;;;;;0.85;0.40;;;10.20;99.90;;;;;;5060644;28;20047;-76
2023/01/11 04:44:55;;;;;;;0.73;0.50;;;10.20;99.90;;;;;;5065254;28;20071;-77
2023/01/11 04:47:23;;;;;;;1.05;0.52;;;10.30;99.90;;;;;;5053716;28;20113;-77
2023/01/11 04:49:49;;;;;;;3.58;0.80;;;10.30;99.90;;;;;;5050953;28;20040;-76
2023/01/11 04:52:16;;;;;;;1.52;0.82;;;10.40;99.90;;;;;;5073047;28;20097;-77
2023/01/11 04:54:43;;;;;;;2.42;0.77;;;10.30;99.90;;;;;;5066598;28;20450;-76
2023/01/11 04:57:14;;;;;;;2.60;1.10;;;10.40;99.90;;;;;;5067622;28;20032;-77
2023/01/11 04:59:40;;;;;;;4.95;1.10;;;10.30;99.90;;;;;;5068040;28;20043;-77
2023/01/11 05:02:05;;;;;;;1.88;0.93;;;10.30;99.90;;;;;;5065093;28;20421;-77
2023/01/11 05:04:31;;;;;;;3.55;1.00;;;10.40;99.90;;;;;;5066893;28;20619;-76
2023/01/11 05:06:57;;;;;;;2.45;1.13;;;10.40;99.90;;;;;;5069860;28;20037;-76
2023/01/11 05:09:22;;;;;;;1.88;0.93;;;10.40;99.90;;;;;;5062510;28;20516;-78
2023/01/11 05:11:48;;;;;;;3.35;0.90;;;10.50;99.90;;;;;;5066899;28;20037;-76
2023/01/11 05:14:15;;;;;;;2.58;1.13;;;10.50;99.90;;;;;;5070657;28;20040;-77
2023/01/11 05:16:41;;;;;;;3.28;1.17;;;10.40;99.90;;;;;;5068661;28;20044;-77
2023/01/11 05:19:09;;;;;;;3.63;0.90;;;10.50;99.90;;;;;;5063882;28;20085;-77
2023/01/11 05:21:38;;;;;;;2.28;0.75;;;10.50;99.90;;;;;;5069788;28;20043;-77
2023/01/11 05:24:05;;;;;;;4.38;1.17;;;10.40;99.90;;;;;;5059643;28;20036;-77
2023/01/11 05:26:34;;;;;;;7.28;1.02;;;10.40;99.90;;;;;;5068199;28;20028;-77
2023/01/11 05:29:02;;;;;;;4.30;0.95;;;10.40;99.90;;;;;;5072733;28;20097;-77
2023/01/11 05:31:29;;;;;;;7.40;0.88;;;10.50;99.90;;;;;;5046063;28;20040;-77
2023/01/11 05:33:56;;;;;;;1.95;0.90;;;10.40;99.90;;;;;;5049516;28;20647;-77
2023/01/11 05:36:24;;;;;;;7.10;1.20;;;10.40;99.90;;;;;;5068842;28;20040;-77
2023/01/11 05:38:51;;;;;;;1.98;0.63;;;10.40;99.90;;;;;;5071398;28;20029;-77
2023/01/11 05:41:19;;;;;;;5.45;1.05;;;10.30;99.90;;;;;;5066907;28;20115;-76
2023/01/11 05:46:31;;;;;;;;;;;10.30;99.90;;;;;;5066281;28;20037;-77
2023/01/11 05:49:00;;;;;;;4.78;0.68;;;10.40;99.90;;;;;;5059062;28;19916;-76
2023/01/11 05:51:29;;;;;;;2.00;0.60;;;10.30;99.90;;;;;;5072068;28;20040;-76
2023/01/11 05:53:58;;;;;;;2.25;1.08;;;10.30;99.90;;;;;;5047601;28;20040;-76
2023/01/11 05:56:24;;;;;;;4.47;0.80;;;10.30;99.90;;;;;;5053362;28;20037;-76
2023/01/11 05:58:51;;;;;;;4.00;0.73;;;10.30;99.90;;;;;;5067470;28;20044;-77
2023/01/11 06:01:18;;;;;;;5.05;0.68;;;10.30;99.90;;;;;;5067600;28;20028;-76
2023/01/11 06:03:45;;;;;;;2.30;0.77;;;10.20;99.90;;;;;;5071929;28;20036;-76
2023/01/11 06:06:11;;;;;;;12.00;0.88;;;10.30;99.90;;;;;;5067688;28;21715;-76
2023/01/11 06:08:37;;;;;;;1.13;0.70;;;10.20;99.90;;;;;;5053450;28;20417;-76
2023/01/11 06:11:03;;;;;;;2.67;0.90;;;10.30;99.90;;;;;;5053023;28;20040;-76
2023/01/11 06:13:28;;;;;;;1.90;0.88;;;10.30;99.90;;;;;;5069559;28;20068;-76
2023/01/11 06:16:05;;;;;;;7.40;1.10;;;10.20;99.90;;;;;;5069581;28;20055;-77
2023/01/11 06:18:34;;;;;;;2.70;0.90;;;10.20;99.90;;;;;;5059796;28;20040;-77
2023/01/11 06:21:00;;;;;;;6.90;0.98;;;10.30;99.90;;;;;;5075392;28;20070;-77
2023/01/11 06:23:27;;;;;;;1.65;0.63;;;10.30;99.90;;;;;;5069184;28;20490;-77
2023/01/11 06:25:52;;;;;;;2.63;0.70;;;10.20;99.90;;;;;;5069728;28;20028;-77
2023/01/11 06:28:18;;;;;;;7.57;1.15;;;10.20;99.90;;;;;;5066945;28;20078;-76
2023/01/11 06:30:49;;;;;;;4.70;0.82;;;10.20;99.90;;;;;;5070679;28;20032;-76
2023/01/11 06:33:15;;;;;;;3.95;0.93;;;10.20;99.90;;;;;;5070023;28;20064;-76
2023/01/11 06:35:42;;;;;;;2.20;1.00;;;10.20;99.90;;;;;;5070044;28;20074;-76
2023/01/11 06:38:10;;;;;;;1.50;0.60;;;10.20;99.90;;;;;;5087219;28;20045;-76
2023/01/11 06:40:36;;;;;;;5.10;1.05;;;10.20;99.90;;;;;;5061490;28;20329;-76
2023/01/11 06:43:02;;;;;;;1.73;0.45;;;10.10;99.90;;;;;;5061851;28;20036;-76
2023/01/11 06:45:29;;;;;;;3.80;0.77;;;10.10;99.90;;;;;;5067371;28;20033;-76
2023/01/11 06:47:55;;;;;;;1.27;0.73;;;10.10;99.90;;;;;;5070429;28;20032;-76
2023/01/11 06:50:21;;;;;;;5.40;0.88;;;10.10;99.90;;;;;;5067509;28;20036;-77
2023/01/11 06:52:53;;;;;;;2.92;0.98;;;10.10;99.90;;;;;;5054045;28;20525;-76
2023/01/11 06:55:20;;;;;;;3.20;0.80;;;10.00;99.90;;;;;;5073852;28;20044;-76
2023/01/11 06:57:45;;;;;;;3.50;0.90;;;10.10;99.90;;;;;;5067659;28;20040;-76
2023/01/11 07:00:11;;;;;;;1.13;0.40;;;10.10;99.90;;;;;;5070892;28;20032;-76
2023/01/11 07:02:37;;;;;;;1.48;0.57;;;10.00;99.90;;;;;;5067141;28;20040;-76
2023/01/11 07:05:03;;;;;;;5.97;0.95;;;10.00;99.90;;;;;;5054253;28;20055;-75
2023/01/11 07:07:28;;;;;;;5.80;1.35;;;9.90;99.90;;;;;;5068439;28;20490;-75
2023/01/11 07:09:54;;;;;;;12.45;0.93;;;9.90;99.90;;;;;;5069268;28;20414;-81
2023/01/11 07:12:20;;;;;;;5.80;1.77;;;9.90;99.90;;;;;;5052808;28;20386;-79
2023/01/11 07:14:45;;;;;;;5.97;0.93;;;9.90;99.90;;;;;;5069683;28;20140;-75
2023/01/11 07:17:11;;;;;;;9.48;0.82;;;9.90;99.90;;;;;;5101788;27;20137;-76
2023/01/11 07:19:36;;;;;;;2.28;1.02;;;9.80;99.90;;;;;;5053497;28;20490;-75
2023/01/11 07:22:02;;;;;;;3.50;1.13;;;9.80;99.90;;;;;;5067979;28;20032;-75
2023/01/11 07:24:28;;;;;;;3.28;0.63;;;9.80;99.90;;;;;;5070382;28;20031;-75
2023/01/11 07:26:55;;;;;;;2.47;1.05;;;9.80;99.90;;;;;;5069432;28;20748;-75
2023/01/11 07:29:21;;;;;;;2.78;0.73;;;9.80;99.90;;;;;;5069551;28;21382;-74
2023/01/11 07:31:46;;;;;;;4.72;1.02;;;9.80;99.90;;;;;;5071086;28;20040;-74
2023/01/11 07:34:12;;;;;;;5.25;0.73;;;9.80;99.90;;;;;;5069965;28;20036;-74
2023/01/11 07:36:38;;;;;;;4.47;1.08;;;9.80;99.90;;;;;;5069373;28;20048;-74
2023/01/11 07:39:05;;;;;;;4.45;1.20;;;9.80;99.90;;;;;;5073019;28;20528;-75
2023/01/11 07:44:15;;;;;;;4.25;0.82;;;9.80;99.90;;;;;;5073771;28;20040;-74
2023/01/11 07:46:40;;;;;;;3.00;0.50;;;9.80;99.90;;;;;;5070241;28;20448;-74
2023/01/11 07:49:06;;;;;;;4.85;0.70;;;9.70;99.90;;;;;;5070310;28;20039;-75
2023/01/11 07:51:31;;;;;;;4.78;0.93;;;9.80;99.90;;;;;;5070500;28;20044;-74
2023/01/11 07:54:01;;;;;;;3.72;0.82;;;9.70;99.90;;;;;;5071157;28;20142;-74
2023/01/11 07:56:27;;;;;;;3.65;0.73;;;9.80;99.90;;;;;;5070116;28;20413;-74
2023/01/11 07:58:53;;;;;;;5.50;1.40;;;9.80;99.90;;;;;;5071831;28;20428;-74
2023/01/11 08:01:19;;;;;;;4.10;0.90;;;9.80;99.90;;;;;;5068677;28;20051;-74
2023/01/11 08:03:44;;;;;;;3.80;0.55;;;9.80;99.90;;;;;;5065854;28;20045;-74
2023/01/11 08:06:10;;;;;;;6.03;1.95;;;9.70;99.90;;;;;;5078067;28;20473;-74
2023/01/11 08:08:35;;;;;;;3.03;0.95;;;9.80;99.90;;;;;;5071551;28;20087;-74
2023/01/11 08:16:29;;;;;;;2.70;0.65;;;9.70;99.90;;;;;;5071424;28;20390;-74
2023/01/11 08:18:55;;;;;;;3.33;0.60;;;9.70;99.90;;;;;;5069271;28;20048;-75
2023/01/11 08:21:20;;;;;;;5.78;0.95;;;9.70;99.90;;;;;;5059514;28;20033;-74
2023/01/11 08:23:46;;;;;;;2.28;0.50;;;9.70;99.90;;;;;;5054338;28;20035;-74
2023/01/11 08:26:15;;;;;;;3.13;0.98;;;9.70;99.90;;;;;;5071721;28;22377;-75
2023/01/11 08:28:45;;;;;;;1.90;0.52;;;9.60;99.90;;;;;;5053497;28;20044;-75
2023/01/11 08:31:10;;;;;;;1.33;0.70;;;9.60;99.90;;;;;;5072353;28;20036;-75
2023/01/11 08:33:36;;;;;;;3.55;0.45;;;9.50;99.90;;;;;;5067983;28;20048;-74
2023/01/11 08:36:06;;;;;;;3.03;0.70;;;9.60;99.90;;;;;;5068834;28;20040;-75
2023/01/11 08:38:32;;;;;;;4.70;0.50;;;9.50;99.90;;;;;;5071499;28;20679;-75
2023/01/11 08:40:58;;;;;;;3.00;0.60;;;9.50;99.90;;;;;;5068529;28;20039;-75
2023/01/11 08:43:23;;;;;;;5.93;0.60;;;9.50;99.90;;;;;;5069137;28;20089;-75
2023/01/11 08:45:50;;;;;;;2.83;0.52;;;9.40;99.90;;;;;;5068421;28;20040;-75
2023/01/11 08:48:16;;;;;;;0.85;0.32;;;9.30;99.90;;;;;;5069467;28;20123;-75
2023/01/11 08:50:43;;;;;;;3.30;1.27;;;9.30;99.90;;;;;;5063150;28;20128;-75
2023/01/11 08:53:09;;;;;;;0.57;0.40;;;9.30;99.90;;;;;;5056122;28;20054;-75
2023/01/11 08:55:35;;;;;;;1.05;0.40;;;9.30;99.90;;;;;;5055040;28;20051;-75
2023/01/11 08:58:01;;;;;;;1.83;0.40;;;9.30;99.90;;;;;;5070349;28;20036;-75
2023/01/11 09:00:27;;;;;;;2.15;0.73;;;9.20;99.90;;;;;;5067143;28;20040;-75
2023/01/11 09:02:52;;;;;;;3.58;0.43;;;9.20;99.90;;;;;;5068803;28;20084;-75
2023/01/11 09:05:18;;;;;;;2.83;0.60;;;9.20;99.90;;;;;;5055729;28;20528;-74
2023/01/11 09:07:44;;;;;;;3.92;0.60;;;9.20;99.90;;;;;;5072172;28;20062;-75
2023/01/11 09:10:10;;;;;;;2.88;0.75;;;9.20;99.90;;;;;;5062801;28;20316;-75
2023/01/11 09:12:36;;;;;;;1.38;0.60;;;9.20;99.90;;;;;;5073549;28;20406;-74
2023/01/11 09:15:04;;;;;;;2.85;0.75;;;9.20;99.90;;;;;;5076982;28;20068;-74
2023/01/11 09:17:30;;;;;;;0.93;0.38;;;9.10;99.90;;;;;;5077461;28;20039;-74
2023/01/11 09:19:55;;;;;;;4.68;0.60;;;9.10;99.90;;;;;;5057017;28;20123;-75
2023/01/11 09:22:21;;;;;;;2.55;0.25;;;9.10;99.90;;;;;;5072439;28;20036;-75
2023/01/11 09:24:47;;;;;;;2.00;0.50;;;9.00;99.90;;;;;;5073340;28;20033;-74
2023/01/11 09:27:13;;;;;;;1.98;0.60;;;9.00;99.90;;;;;;5071567;28;20070;-75
2023/01/11 09:29:38;;;;;;;1.20;0.40;;;9.00;99.90;;;;;;5070083;28;21070;-75
2023/01/11 09:32:04;;;;;;;0.65;0.50;;;9.00;99.90;;;;;;5073810;28;20779;-75
2023/01/11 09:34:30;;;;;;;3.97;0.43;;;9.00;99.90;;;;;;5055341;28;20039;-75
2023/01/11 09:36:58;;;;;;;4.20;0.60;;;9.00;99.90;;;;;;5070837;28;20146;-76
2023/01/11 09:39:26;;;;;;;3.25;0.40;;;9.00;99.90;;;;;;5075979;28;20043;-76
2023/01/11 09:41:59;;;;;;;0.80;0.35;;;9.00;99.90;;;;;;5057576;28;20056;-75
2023/01/11 09:44:28;;;;;;;2.63;0.82;;;9.00;99.90;;;;;;5071697;28;20044;-75
2023/01/11 09:47:07;;;;;;;2.10;0.35;;;9.00;99.90;;;;;;5071683;28;20080;-75
2023/01/11 09:49:40;;;;;;;1.92;0.57;;;8.90;99.90;;;;;;5068623;28;20051;-76
2023/01/11 09:52:25;;;;;;;1.45;0.38;;;8.90;99.90;;;;;;5067527;28;20570;-75
2023/01/11 09:54:51;;;;;;;4.82;0.73;;;8.90;99.90;;;;;;5069742;28;20040;-75
2023/01/11 09:57:25;;;;;;;1.33;0.70;;;9.00;99.90;;;;;;5062900;28;20046;-75
2023/01/11 10:00:08;;;;;;;1.23;0.38;;;9.00;99.90;;;;;;5067218;28;20071;-75
2023/01/11 10:03:04;;;;;;;2.85;0.32;;;9.00;99.90;;;;;;5069123;28;20077;-74
2023/01/11 10:05:38;;;;;;;1.42;0.60;;;9.00;99.90;;;;;;5073499;28;20652;-74
2023/01/11 10:08:40;;;;;;;1.60;0.45;;;9.10;99.90;;;;;;5048802;28;20447;-75
2023/01/11 10:11:40;;;;;;;1.15;0.22;;;9.10;99.90;;;;;;5053550;28;20032;-74
2023/01/11 10:14:25;;;;;;;1.58;0.55;;;9.10;99.90;;;;;;5106020;27;20156;-75
2023/01/11 10:17:08;;;;;;;6.20;0.83;;;9.10;99.90;;;;;;5070126;28;20048;-75
2023/01/11 10:19:46;;;;;;;3.83;0.63;;;9.20;99.90;;;;;;5068385;28;20127;-75
2023/01/11 10:22:39;;;;;;;0.93;0.68;;;9.20;99.90;;;;;;5065480;28;20496;-74
2023/01/11 10:25:23;;;;;;;6.32;0.70;;;9.20;99.90;;;;;;5074383;28;20040;-74
2023/01/11 10:28:05;;;;;;;2.33;0.88;;;9.20;99.90;;;;;;5059703;28;20115;-75
2023/01/11 10:42:18;;;;;;;2.97;0.90;;;9.30;99.90;;;;;;5070002;28;20486;-74
2023/01/11 10:45:02;;;;;;;3.65;0.60;;;9.40;99.90;;;;;;5074066;28;20642;-75
2023/01/11 10:47:44;;;;;;;6.18;0.85;;;9.40;99.90;;;;;;5085438;28;20427;-73
2023/01/11 10:50:38;;;;;;;3.28;0.60;;;9.40;99.90;;;;;;5093221;27;20108;-74
2023/01/11 10:53:24;;;;;;;4.38;0.63;;;9.50;99.90;;;;;;5075111;28;20032;-74
2023/01/11 10:56:01;;;;;;;5.77;1.03;;;9.40;99.90;;;;;;5069581;28;20131;-74
2023/01/11 10:58:44;;;;;;;1.55;0.88;;;9.40;99.90;;;;;;5068076;28;20446;-73
2023/01/11 11:01:38;;;;;;;4.72;0.90;;;9.40;99.90;;;;;;5054181;28;20121;-74
2023/01/11 11:04:32;;;;;;;0.77;0.43;;;9.50;99.90;;;;;;5077218;28;20040;-74
2023/01/11 11:07:17;;;;;;;4.57;1.27;;;9.40;99.90;;;;;;5056325;28;20083;-73
2023/01/11 11:09:51;;;;;;;4.82;0.90;;;9.40;99.90;;;;;;5074445;28;20105;-73
2023/01/11 11:12:28;;;;;;;3.25;0.95;;;9.40;99.90;;;;;;5069211;28;20040;-73
2023/01/11 11:15:19;;;;;;;3.13;0.70;;;9.40;99.90;;;;;;5069891;28;20041;-74
2023/01/11 11:17:49;;;;;;;4.43;0.85;;;9.30;99.90;;;;;;5045671;28;20067;-74
2023/01/11 11:20:21;;;;;;;3.10;0.82;;;9.30;99.90;;;;;;5062454;28;20040;-73
2023/01/11 11:22:49;;;;;;;5.20;0.70;;;9.30;99.90;;;;;;5095674;28;20047;-74
2023/01/11 11:25:28;;;;;;;4.68;1.02;;;9.30;99.90;;;;;;5070536;28;20538;-74
2023/01/11 11:28:14;;;;;;;1.27;0.50;;;9.30;99.90;;;;;;5060366;28;20045;-73
2023/01/11 11:30:45;;;;;;;1.48;0.57;;;9.30;99.90;;;;;;5092282;27;20165;-74
2023/01/11 11:33:32;;;;;;;2.42;0.52;;;9.30;99.90;;;;;;5073548;28;20029;-74
2023/01/11 11:36:03;;;;;;;3.70;1.02;;;9.30;99.90;;;;;;5078137;28;20097;-74
2023/01/11 11:38:40;;;;;;;6.03;1.38;;;9.30;99.90;;;;;;5055411;28;20044;-74
2023/01/11 11:41:18;;;;;;;3.40;0.98;;;9.30;99.90;;;;;;5091239;28;20033;-74
2023/01/11 11:43:45;;;;;;;7.28;1.10;;;9.30;99.90;;;;;;5079358;28;20059;-74
2023/01/11 11:46:14;;;;;;;2.60;0.98;;;9.40;99.90;;;;;;5076885;28;20089;-74
2023/01/11 11:48:42;;;;;;;7.18;1.30;;;9.40;99.90;;;;;;5087004;28;20040;-74
2023/01/11 11:51:19;;;;;;;2.80;0.98;;;9.40;99.90;;;;;;5077785;28;20028;-74
2023/01/11 11:53:52;;;;;;;1.42;0.82;;;9.40;99.90;;;;;;5080621;28;20039;-74
2023/01/11 11:56:28;;;;;;;5.88;0.73;;;9.40;99.90;;;;;;5107392;27;20032;-73
2023/01/11 11:58:55;;;;;;;3.65;0.68;;;9.40;99.90;;;;;;5056096;28;20076;-74
2023/01/11 12:01:39;;;;;;;3.13;0.70;;;9.40;99.90;;;;;;5077543;28;20439;-73
2023/01/11 12:04:17;;;;;;;1.85;0.73;;;9.40;99.90;;;;;;5087611;28;20633;-73
2023/01/11 12:06:45;;;;;;;3.35;0.93;;;9.40;99.90;;;;;;5101941;27;20193;-74
2023/01/11 12:09:26;;;;;;;3.90;0.70;;;9.40;99.90;;;;;;5070815;28;20046;-74
2023/01/11 12:11:52;;;;;;;4.57;0.73;;;9.40;99.90;;;;;;5079295;28;20494;-74
2023/01/11 12:14:22;;;;;;;1.10;0.38;;;9.40;99.90;;;;;;5070984;28;20156;-74
2023/01/11 12:16:48;;;;;;;3.78;0.70;;;9.40;99.90;;;;;;5067775;28;20528;-74
2023/01/11 12:19:41;;;;;;;2.72;0.60;;;9.40;99.90;;;;;;5069933;28;20127;-74
2023/01/11 12:22:19;;;;;;;5.38;0.60;;;9.40;99.90;;;;;;5071085;28;20401;-74
2023/01/11 12:25:17;;;;;;;6.55;0.95;;;9.50;99.90;;;;;;5062189;28;20390;-74
2023/01/11 12:28:05;;;;;;;4.43;0.70;;;9.50;99.90;;;;;;5051458;28;20036;-74
2023/01/11 12:30:34;;;;;;;3.38;1.08;;;9.50;99.90;;;;;;5076724;28;20050;-74
2023/01/11 12:33:12;;;;;;;3.50;0.55;;;9.50;99.90;;;;;;5055188;28;20068;-74
2023/01/11 12:35:52;;;;;;;1.88;0.50;;;9.50;99.90;;;;;;5066290;28;20371;-74
2023/01/11 12:38:38;;;;;;;3.70;0.73;;;9.50;99.90;;;;;;5077811;28;20039;-74
2023/01/11 12:41:13;;;;;;;;;;;9.50;99.90;;;;;;5065561;28;20977;-74
2023/01/11 12:44:11;;;;;;;5.15;0.70;;;9.40;99.90;;;;;;5100645;27;19916;-74
2023/01/11 12:46:58;;;;;;;5.70;0.98;;;9.50;99.90;;;;;;5063899;28;20032;-74
2023/01/11 12:49:52;;;;;;;4.88;0.80;;;9.50;99.90;;;;;;5067997;28;20493;-74
2023/01/11 12:52:49;;;;;;;2.88;0.90;;;9.40;99.90;;;;;;5071488;28;20482;-74
2023/01/11 12:55:52;;;;;;;3.63;1.13;;;9.50;99.90;;;;;;5066145;28;20058;-75
2023/01/11 12:58:25;;;;;;;4.15;1.38;;;9.50;99.90;;;;;;5067347;28;20036;-74
2023/01/11 13:01:20;;;;;;;3.88;0.93;;;9.50;99.90;;;;;;5075135;28;20157;-75
2023/01/11 13:04:19;;;;;;;5.78;1.77;;;9.50;99.90;;;;;;5068024;28;20247;-74
2023/01/11 13:07:02;;;;;;;62.55;24.05;;;9.50;99.90;;;;;;5056027;28;20056;-75
2023/01/11 13:09:58;;;;;;;14.93;6.18;;;9.50;99.90;;;;;;5066737;28;20048;-74
2023/01/11 13:12:36;;;;;;;;;;;9.50;99.90;;;;;;5054324;28;20366;-74
2023/01/11 13:15:33;;;;;;;6.15;3.60;;;9.50;99.90;;;;;;5092203;28;19961;-74
2023/01/11 13:18:08;;;;;;;11.18;4.72;;;9.50;99.90;;;;;;5070397;28;20040;-78
2023/01/11 13:21:06;;;;;;;7.40;2.45;;;9.50;99.90;;;;;;5052085;28;20047;-77
2023/01/11 13:23:44;;;;;;;5.85;1.80;;;9.50;99.90;;;;;;5085937;28;20255;-79
2023/01/11 13:26:36;;;;;;;6.80;1.88;;;9.40;99.90;;;;;;5058219;28;20107;-78
2023/01/11 13:29:06;;;;;;;9.65;1.90;;;9.40;99.90;;;;;;5089285;28;20128;-74
2023/01/11 13:31:33;;;;;;;9.65;4.20;;;9.50;99.90;;;;;;5070166;28;20434;-74
2023/01/11 13:34:37;;;;;;;6.63;1.90;;;9.50;99.90;;;;;;5066138;28;20040;-74
2023/01/11 13:37:38;;;;;;;10.00;1.98;;;9.50;99.90;;;;;;5068107;28;20032;-74
2023/01/11 13:40:50;;;;;;;6.18;1.90;;;9.50;99.90;;;;;;5064366;28;20060;-74
2023/01/11 13:43:29;;;;;;;6.55;1.35;;;9.40;99.90;;;;;;5081088;28;20108;-74
2023/01/11 13:46:05;;;;;;;2.55;1.00;;;9.50;99.90;;;;;;5079889;28;20047;-74
2023/01/11 13:48:39;;;;;;;5.95;0.73;;;9.40;99.90;;;;;;5068110;28;20045;-74
2023/01/11 13:51:44;;;;;;;3.65;1.23;;;9.40;99.90;;;;;;5075334;28;20100;-74
2023/01/11 13:54:13;;;;;;;2.28;0.70;;;9.30;99.90;;;;;;5083754;28;20047;-74
2023/01/11 13:56:45;;;;;;;4.95;1.33;;;9.20;99.90;;;;;;5057494;28;20127;-74
2023/01/11 13:59:20;;;;;;;5.18;1.15;;;9.20;99.90;;;;;;5061953;28;20052;-74
2023/01/11 14:01:58;;;;;;;2.55;1.33;;;9.10;99.90;;;;;;5058339;28;20086;-75
2023/01/11 14:04:36;;;;;;;1.52;0.68;;;9.20;99.90;;;;;;5064917;28;20094;-74